sensor_id;sensor_type;location;lat;lon;timestamp;temperature;humidity
34406;DHT22;20658;45.630;8.886;2023-12-29T00:02:31;8.20;99.90
34406;DHT22;20658;45.630;8.886;2023-12-29T00:05:05;8.20;99.90
34406;DHT22;20658;45.630;8.886;2023-12-29T00:07:40;8.20;99.90
34406;DHT22;20658;45.630;8.886;2023-12-29T00:10:14;8.20;99.90
34406;DHT22;20658;45.630;8.886;2023-12-29T00:12:47;8.20;99.90
34406;DHT22;20658;45.630;8.886;2023-12-29T00:15:21;8.20;99.90
34406;DHT22;20658;45.630;8.886;2023-12-29T00:17:49;8.20;99.90
34406;DHT22;20658;45.630;8.886;2023-12-29T00:20:24;8.20;99.90
34406;DHT22;20658;45.630;8.886;2023-12-29T00:22:59;8.20;99.90
34406;DHT22;20658;45.630;8.886;2023-12-29T00:25:35;8.20;99.90
34406;DHT22;20658;45.630;8.886;2023-12-29T00:28:09;8.20;99.90
34406;DHT22;20658;45.630;8.886;2023-12-29T00:30:43;8.20;99.90
34406;DHT22;20658;45.630;8.886;2023-12-29T00:33:16;8.20;99.90
34406;DHT22;20658;45.630;8.886;2023-12-29T00:35:50;8.10;99.90
34406;DHT22;20658;45.630;8.886;2023-12-29T00:38:26;8.10;99.90
34406;DHT22;20658;45.630;8.886;2023-12-29T00:40:55;8.10;99.90
34406;DHT22;20658;45.630;8.886;2023-12-29T00:43:28;8.10;99.90
34406;DHT22;20658;45.630;8.886;2023-12-29T00:46:02;8.10;99.90
34406;DHT22;20658;45.630;8.886;2023-12-29T00:48:36;8.10;99.90
34406;DHT22;20658;45.630;8.886;2023-12-29T00:51:05;8.20;99.90
34406;DHT22;20658;45.630;8.886;2023-12-29T00:53:36;8.10;99.90
34406;DHT22;20658;45.630;8.886;2023-12-29T00:56:12;8.10;99.90
34406;DHT22;20658;45.630;8.886;2023-12-29T00:58:46;8.10;99.90
34406;DHT22;20658;45.630;8.886;2023-12-29T01:01:14;8.10;99.90
34406;DHT22;20658;45.630;8.886;2023-12-29T01:03:48;8.10;99.90
34406;DHT22;20658;45.630;8.886;2023-12-29T01:06:23;8.10;99.90
34406;DHT22;20658;45.630;8.886;2023-12-29T01:08:58;8.10;99.90
34406;DHT22;20658;45.630;8.886;2023-12-29T01:11:31;8.00;99.90
34406;DHT22;20658;45.630;8.886;2023-12-29T01:14:04;8.00;99.90
34406;DHT22;20658;45.630;8.886;2023-12-29T01:16:38;8.00;99.90
34406;DHT22;20658;45.630;8.886;2023-12-29T01:19:12;8.10;99.90
34406;DHT22;20658;45.630;8.886;2023-12-29T01:21:45;8.00;99.90
34406;DHT22;20658;45.630;8.886;2023-12-29T01:24:20;8.00;99.90
34406;DHT22;20658;45.630;8.886;2023-12-29T01:26:53;8.00;99.90
34406;DHT22;20658;45.630;8.886;2023-12-29T01:29:27;8.00;99.90
34406;DHT22;20658;45.630;8.886;2023-12-29T01:32:00;8.00;99.90
34406;DHT22;20658;45.630;8.886;2023-12-29T01:34:35;8.00;99.90
34406;DHT22;20658;45.630;8.886;2023-12-29T01:37:08;8.00;99.90
34406;DHT22;20658;45.630;8.886;2023-12-29T01:39:43;8.00;99.90
34406;DHT22;20658;45.630;8.886;2023-12-29T01:42:17;7.90;99.90
34406;DHT22;20658;45.630;8.886;2023-12-29T01:44:50;7.90;99.90
34406;DHT22;20658;45.630;8.886;2023-12-29T01:47:26;7.90;99.90
34406;DHT22;20658;45.630;8.886;2023-12-29T01:50:12;7.90;99.90
34406;DHT22;20658;45.630;8.886;2023-12-29T01:52:45;7.90;99.90
34406;DHT22;20658;45.630;8.886;2023-12-29T01:55:24;7.90;99.90
34406;DHT22;20658;45.630;8.886;2023-12-29T01:57:59;7.80;99.90
34406;DHT22;20658;45.630;8.886;2023-12-29T02:00:33;7.90;99.90
34406;DHT22;20658;45.630;8.886;2023-12-29T02:03:07;7.90;99.90
34406;DHT22;20658;45.630;8.886;2023-12-29T02:05:42;7.90;99.90
34406;DHT22;20658;45.630;8.886;2023-12-29T02:08:16;7.80;99.90
34406;DHT22;20658;45.630;8.886;2023-12-29T02:10:51;7.80;99.90
34406;DHT22;20658;45.630;8.886;2023-12-29T02:13:25;7.80;99.90
34406;DHT22;20658;45.630;8.886;2023-12-29T02:16:02;7.80;99.90
34406;DHT22;20658;45.630;8.886;2023-12-29T02:18:42;7.80;99.90
34406;DHT22;20658;45.630;8.886;2023-12-29T02:21:17;7.80;99.90
34406;DHT22;20658;45.630;8.886;2023-12-29T02:23:56;7.80;99.90
34406;DHT22;20658;45.630;8.886;2023-12-29T02:26:29;7.80;99.90
34406;DHT22;20658;45.630;8.886;2023-12-29T02:29:02;7.80;99.90
34406;DHT22;20658;45.630;8.886;2023-12-29T02:31:39;7.80;99.90
34406;DHT22;20658;45.630;8.886;2023-12-29T02:34:17;7.80;99.90
34406;DHT22;20658;45.630;8.886;2023-12-29T02:36:47;7.80;99.90
34406;DHT22;20658;45.630;8.886;2023-12-29T02:39:23;7.80;99.90
34406;DHT22;20658;45.630;8.886;2023-12-29T02:41:58;7.80;99.90
34406;DHT22;20658;45.630;8.886;2023-12-29T02:44:27;7.80;99.90
34406;DHT22;20658;45.630;8.886;2023-12-29T02:47:01;7.80;99.90
34406;DHT22;20658;45.630;8.886;2023-12-29T02:49:35;7.80;99.90
34406;DHT22;20658;45.630;8.886;2023-12-29T02:52:09;7.80;99.90
34406;DHT22;20658;45.630;8.886;2023-12-29T02:54:42;7.80;99.90
34406;DHT22;20658;45.630;8.886;2023-12-29T02:57:18;7.80;99.90
34406;DHT22;20658;45.630;8.886;2023-12-29T02:59:47;7.80;99.90
34406;DHT22;20658;45.630;8.886;2023-12-29T03:02:20;7.80;99.90
34406;DHT22;20658;45.630;8.886;2023-12-29T03:04:54;7.80;99.90
34406;DHT22;20658;45.630;8.886;2023-12-29T03:07:27;7.80;99.90
34406;DHT22;20658;45.630;8.886;2023-12-29T03:10:00;7.80;99.90
34406;DHT22;20658;45.630;8.886;2023-12-29T03:12:30;7.80;99.90
34406;DHT22;20658;45.630;8.886;2023-12-29T03:15:04;7.80;99.90
34406;DHT22;20658;45.630;8.886;2023-12-29T03:17:38;7.80;99.90
34406;DHT22;20658;45.630;8.886;2023-12-29T03:20:11;7.80;99.90
34406;DHT22;20658;45.630;8.886;2023-12-29T03:22:45;7.80;99.90
34406;DHT22;20658;45.630;8.886;2023-12-29T03:25:18;7.80;99.90
34406;DHT22;20658;45.630;8.886;2023-12-29T03:27:53;7.80;99.90
34406;DHT22;20658;45.630;8.886;2023-12-29T03:30:27;7.80;99.90
34406;DHT22;20658;45.630;8.886;2023-12-29T03:33:00;7.70;99.90
34406;DHT22;20658;45.630;8.886;2023-12-29T03:35:33;7.70;99.90
34406;DHT22;20658;45.630;8.886;2023-12-29T03:38:07;7.70;99.90
34406;DHT22;20658;45.630;8.886;2023-12-29T03:40:40;7.70;99.90
34406;DHT22;20658;45.630;8.886;2023-12-29T03:43:15;7.70;99.90
34406;DHT22;20658;45.630;8.886;2023-12-29T03:45:48;7.70;99.90
34406;DHT22;20658;45.630;8.886;2023-12-29T03:48:23;7.60;99.90
34406;DHT22;20658;45.630;8.886;2023-12-29T03:50:57;7.70;99.90
34406;DHT22;20658;45.630;8.886;2023-12-29T03:53:30;7.60;99.90
34406;DHT22;20658;45.630;8.886;2023-12-29T03:56:04;7.60;99.90
34406;DHT22;20658;45.630;8.886;2023-12-29T03:58:41;7.60;99.90
34406;DHT22;20658;45.630;8.886;2023-12-29T04:01:15;7.60;99.90
34406;DHT22;20658;45.630;8.886;2023-12-29T04:03:49;7.60;99.90
34406;DHT22;20658;45.630;8.886;2023-12-29T04:06:18;7.60;99.90
34406;DHT22;20658;45.630;8.886;2023-12-29T04:08:51;7.60;99.90
34406;DHT22;20658;45.630;8.886;2023-12-29T04:11:24;7.60;99.90
34406;DHT22;20658;45.630;8.886;2023-12-29T04:13:59;7.60;99.90
34406;DHT22;20658;45.630;8.886;2023-12-29T04:16:33;7.50;99.90
34406;DHT22;20658;45.630;8.886;2023-12-29T04:19:06;7.60;99.90
34406;DHT22;20658;45.630;8.886;2023-12-29T04:21:40;7.60;99.90
34406;DHT22;20658;45.630;8.886;2023-12-29T04:24:13;7.60;99.90
34406;DHT22;20658;45.630;8.886;2023-12-29T04:26:47;7.60;99.90
34406;DHT22;20658;45.630;8.886;2023-12-29T04:29:21;7.60;99.90
34406;DHT22;20658;45.630;8.886;2023-12-29T04:31:55;7.60;99.90
34406;DHT22;20658;45.630;8.886;2023-12-29T04:34:28;7.60;99.90
34406;DHT22;20658;45.630;8.886;2023-12-29T04:36:57;7.60;99.90
34406;DHT22;20658;45.630;8.886;2023-12-29T04:39:31;7.60;99.90
34406;DHT22;20658;45.630;8.886;2023-12-29T04:42:04;7.60;99.90
34406;DHT22;20658;45.630;8.886;2023-12-29T04:44:40;7.60;99.90
34406;DHT22;20658;45.630;8.886;2023-12-29T04:47:13;7.70;99.90
34406;DHT22;20658;45.630;8.886;2023-12-29T04:49:48;7.70;99.90
34406;DHT22;20658;45.630;8.886;2023-12-29T04:52:21;7.70;99.90
34406;DHT22;20658;45.630;8.886;2023-12-29T04:54:55;7.70;99.90
34406;DHT22;20658;45.630;8.886;2023-12-29T04:57:28;7.70;99.90
34406;DHT22;20658;45.630;8.886;2023-12-29T05:00:04;7.70;99.90
34406;DHT22;20658;45.630;8.886;2023-12-29T05:02:38;7.70;99.90
34406;DHT22;20658;45.630;8.886;2023-12-29T05:05:12;7.70;99.90
34406;DHT22;20658;45.630;8.886;2023-12-29T05:07:45;7.70;99.90
34406;DHT22;20658;45.630;8.886;2023-12-29T05:10:19;7.70;99.90
34406;DHT22;20658;45.630;8.886;2023-12-29T05:12:52;7.60;99.90
34406;DHT22;20658;45.630;8.886;2023-12-29T05:15:27;7.70;99.90
34406;DHT22;20658;45.630;8.886;2023-12-29T05:18:00;7.70;99.90
34406;DHT22;20658;45.630;8.886;2023-12-29T05:20:34;7.70;99.90
34406;DHT22;20658;45.630;8.886;2023-12-29T05:23:02;7.70;99.90
34406;DHT22;20658;45.630;8.886;2023-12-29T05:25:36;7.60;99.90
34406;DHT22;20658;45.630;8.886;2023-12-29T05:28:09;7.60;99.90
34406;DHT22;20658;45.630;8.886;2023-12-29T05:30:44;7.60;99.90
34406;DHT22;20658;45.630;8.886;2023-12-29T05:33:13;7.60;99.90
34406;DHT22;20658;45.630;8.886;2023-12-29T05:35:46;7.60;99.90
34406;DHT22;20658;45.630;8.886;2023-12-29T05:38:20;7.60;99.90
34406;DHT22;20658;45.630;8.886;2023-12-29T05:40:54;7.60;99.90
34406;DHT22;20658;45.630;8.886;2023-12-29T05:43:28;7.60;99.90
34406;DHT22;20658;45.630;8.886;2023-12-29T05:46:03;7.60;99.90
34406;DHT22;20658;45.630;8.886;2023-12-29T05:48:42;7.60;99.90
34406;DHT22;20658;45.630;8.886;2023-12-29T05:51:12;7.50;99.90
34406;DHT22;20658;45.630;8.886;2023-12-29T05:53:47;7.60;99.90
34406;DHT22;20658;45.630;8.886;2023-12-29T05:56:21;7.50;99.90
34406;DHT22;20658;45.630;8.886;2023-12-29T05:58:54;7.50;99.90
34406;DHT22;20658;45.630;8.886;2023-12-29T06:01:29;7.40;99.90
34406;DHT22;20658;45.630;8.886;2023-12-29T06:03:58;7.40;99.90
34406;DHT22;20658;45.630;8.886;2023-12-29T06:06:31;7.40;99.90
34406;DHT22;20658;45.630;8.886;2023-12-29T06:09:05;7.50;99.90
34406;DHT22;20658;45.630;8.886;2023-12-29T06:11:39;7.40;99.90
34406;DHT22;20658;45.630;8.886;2023-12-29T06:14:12;7.40;99.90
34406;DHT22;20658;45.630;8.886;2023-12-29T06:16:43;7.50;99.90
34406;DHT22;20658;45.630;8.886;2023-12-29T06:19:16;7.50;99.90
34406;DHT22;20658;45.630;8.886;2023-12-29T06:21:50;7.50;99.90
34406;DHT22;20658;45.630;8.886;2023-12-29T06:24:18;7.50;99.90
34406;DHT22;20658;45.630;8.886;2023-12-29T06:26:52;7.50;99.90
34406;DHT22;20658;45.630;8.886;2023-12-29T06:29:26;7.50;99.90
34406;DHT22;20658;45.630;8.886;2023-12-29T06:32:01;7.50;99.90
34406;DHT22;20658;45.630;8.886;2023-12-29T06:34:34;7.50;99.90
34406;DHT22;20658;45.630;8.886;2023-12-29T06:37:08;7.50;99.90
34406;DHT22;20658;45.630;8.886;2023-12-29T06:39:37;7.50;99.90
34406;DHT22;20658;45.630;8.886;2023-12-29T06:42:12;7.50;99.90
34406;DHT22;20658;45.630;8.886;2023-12-29T06:44:46;7.50;99.90
34406;DHT22;20658;45.630;8.886;2023-12-29T06:47:21;7.50;99.90
34406;DHT22;20658;45.630;8.886;2023-12-29T06:49:54;7.60;99.90
34406;DHT22;20658;45.630;8.886;2023-12-29T06:52:29;7.60;99.90
34406;DHT22;20658;45.630;8.886;2023-12-29T06:55:01;7.50;99.90
34406;DHT22;20658;45.630;8.886;2023-12-29T06:57:34;7.60;99.90
34406;DHT22;20658;45.630;8.886;2023-12-29T07:00:04;7.60;99.90
34406;DHT22;20658;45.630;8.886;2023-12-29T07:02:40;7.60;99.90
34406;DHT22;20658;45.630;8.886;2023-12-29T07:05:09;7.60;99.90
34406;DHT22;20658;45.630;8.886;2023-12-29T07:07:43;7.50;99.90
34406;DHT22;20658;45.630;8.886;2023-12-29T07:10:16;7.60;99.90
34406;DHT22;20658;45.630;8.886;2023-12-29T07:12:45;7.50;99.90
34406;DHT22;20658;45.630;8.886;2023-12-29T07:15:14;7.60;99.90
34406;DHT22;20658;45.630;8.886;2023-12-29T07:17:48;7.60;99.90
34406;DHT22;20658;45.630;8.886;2023-12-29T07:20:22;7.60;99.90
34406;DHT22;20658;45.630;8.886;2023-12-29T07:22:55;7.60;99.90
34406;DHT22;20658;45.630;8.886;2023-12-29T07:25:29;7.60;99.90
34406;DHT22;20658;45.630;8.886;2023-12-29T07:28:03;7.60;99.90
34406;DHT22;20658;45.630;8.886;2023-12-29T07:30:37;7.60;99.90
34406;DHT22;20658;45.630;8.886;2023-12-29T07:33:12;7.70;99.90
34406;DHT22;20658;45.630;8.886;2023-12-29T07:35:46;7.70;99.90
34406;DHT22;20658;45.630;8.886;2023-12-29T07:38:20;7.70;99.90
34406;DHT22;20658;45.630;8.886;2023-12-29T07:40:53;7.70;99.90
34406;DHT22;20658;45.630;8.886;2023-12-29T07:43:27;7.70;99.90
34406;DHT22;20658;45.630;8.886;2023-12-29T07:45:55;7.80;99.90
34406;DHT22;20658;45.630;8.886;2023-12-29T07:48:30;7.80;99.90
34406;DHT22;20658;45.630;8.886;2023-12-29T07:51:05;7.80;99.90
34406;DHT22;20658;45.630;8.886;2023-12-29T07:53:39;7.80;99.90
34406;DHT22;20658;45.630;8.886;2023-12-29T07:56:13;7.80;99.90
34406;DHT22;20658;45.630;8.886;2023-12-29T07:58:41;7.80;99.90
34406;DHT22;20658;45.630;8.886;2023-12-29T08:01:14;7.80;99.90
34406;DHT22;20658;45.630;8.886;2023-12-29T08:03:49;7.90;99.90
34406;DHT22;20658;45.630;8.886;2023-12-29T08:06:23;7.90;99.90
34406;DHT22;20658;45.630;8.886;2023-12-29T08:08:56;7.90;99.90
34406;DHT22;20658;45.630;8.886;2023-12-29T08:11:30;7.90;99.90
34406;DHT22;20658;45.630;8.886;2023-12-29T08:14:03;7.90;99.90
34406;DHT22;20658;45.630;8.886;2023-12-29T08:16:37;7.90;99.90
34406;DHT22;20658;45.630;8.886;2023-12-29T08:19:12;8.00;99.90
34406;DHT22;20658;45.630;8.886;2023-12-29T08:21:47;7.90;99.90
34406;DHT22;20658;45.630;8.886;2023-12-29T08:24:20;7.90;99.90
34406;DHT22;20658;45.630;8.886;2023-12-29T08:26:49;8.00;99.90
34406;DHT22;20658;45.630;8.886;2023-12-29T08:29:22;8.00;99.90
34406;DHT22;20658;45.630;8.886;2023-12-29T08:31:58;8.00;99.90
34406;DHT22;20658;45.630;8.886;2023-12-29T08:34:30;8.00;99.90
34406;DHT22;20658;45.630;8.886;2023-12-29T08:37:03;8.00;99.90
34406;DHT22;20658;45.630;8.886;2023-12-29T08:39:37;8.10;99.90
34406;DHT22;20658;45.630;8.886;2023-12-29T08:42:11;8.10;99.90
34406;DHT22;20658;45.630;8.886;2023-12-29T08:44:39;8.10;99.90
34406;DHT22;20658;45.630;8.886;2023-12-29T08:47:13;8.20;99.90
34406;DHT22;20658;45.630;8.886;2023-12-29T08:49:42;8.20;99.90
34406;DHT22;20658;45.630;8.886;2023-12-29T08:52:11;8.20;99.90
34406;DHT22;20658;45.630;8.886;2023-12-29T08:54:44;8.30;99.90
34406;DHT22;20658;45.630;8.886;2023-12-29T08:57:18;8.30;99.90
34406;DHT22;20658;45.630;8.886;2023-12-29T08:59:51;8.30;99.90
34406;DHT22;20658;45.630;8.886;2023-12-29T09:02:25;8.40;99.90
34406;DHT22;20658;45.630;8.886;2023-12-29T09:05:01;8.40;99.90
34406;DHT22;20658;45.630;8.886;2023-12-29T09:07:34;8.40;99.90
34406;DHT22;20658;45.630;8.886;2023-12-29T09:10:03;8.40;99.90
34406;DHT22;20658;45.630;8.886;2023-12-29T09:12:40;8.50;99.90
34406;DHT22;20658;45.630;8.886;2023-12-29T09:15:13;8.50;99.90
34406;DHT22;20658;45.630;8.886;2023-12-29T09:17:42;8.60;99.90
34406;DHT22;20658;45.630;8.886;2023-12-29T09:20:12;8.60;99.90
34406;DHT22;20658;45.630;8.886;2023-12-29T09:22:46;8.60;99.90
34406;DHT22;20658;45.630;8.886;2023-12-29T09:25:15;8.60;99.90
34406;DHT22;20658;45.630;8.886;2023-12-29T09:27:48;8.60;99.90
34406;DHT22;20658;45.630;8.886;2023-12-29T09:30:24;8.60;99.90
34406;DHT22;20658;45.630;8.886;2023-12-29T09:32:57;8.70;99.90
34406;DHT22;20658;45.630;8.886;2023-12-29T09:35:32;8.60;99.90
34406;DHT22;20658;45.630;8.886;2023-12-29T09:38:02;8.70;99.90
34406;DHT22;20658;45.630;8.886;2023-12-29T09:40:36;8.70;99.90
34406;DHT22;20658;45.630;8.886;2023-12-29T09:43:10;8.70;99.90
34406;DHT22;20658;45.630;8.886;2023-12-29T09:45:41;8.70;99.90
34406;DHT22;20658;45.630;8.886;2023-12-29T09:48:16;8.70;99.90
34406;DHT22;20658;45.630;8.886;2023-12-29T09:50:52;8.80;99.90
34406;DHT22;20658;45.630;8.886;2023-12-29T09:53:27;8.80;99.90
34406;DHT22;20658;45.630;8.886;2023-12-29T09:56:01;8.80;99.90
34406;DHT22;20658;45.630;8.886;2023-12-29T09:58:36;8.90;99.90
34406;DHT22;20658;45.630;8.886;2023-12-29T10:01:11;8.90;99.90
34406;DHT22;20658;45.630;8.886;2023-12-29T10:03:44;8.90;99.90
34406;DHT22;20658;45.630;8.886;2023-12-29T10:06:19;8.90;99.90
34406;DHT22;20658;45.630;8.886;2023-12-29T10:08:53;8.90;99.90
34406;DHT22;20658;45.630;8.886;2023-12-29T10:11:28;8.90;99.90
34406;DHT22;20658;45.630;8.886;2023-12-29T10:14:09;8.90;99.90
34406;DHT22;20658;45.630;8.886;2023-12-29T10:16:53;8.90;99.90
34406;DHT22;20658;45.630;8.886;2023-12-29T10:19:33;9.00;99.90
34406;DHT22;20658;45.630;8.886;2023-12-29T10:22:24;9.00;99.90
34406;DHT22;20658;45.630;8.886;2023-12-29T10:25:03;9.00;99.90
34406;DHT22;20658;45.630;8.886;2023-12-29T10:27:36;9.00;99.90
34406;DHT22;20658;45.630;8.886;2023-12-29T10:30:11;8.90;99.90
34406;DHT22;20658;45.630;8.886;2023-12-29T10:32:40;9.00;99.90
34406;DHT22;20658;45.630;8.886;2023-12-29T10:35:14;9.10;99.90
34406;DHT22;20658;45.630;8.886;2023-12-29T10:37:49;9.10;99.90
34406;DHT22;20658;45.630;8.886;2023-12-29T10:40:22;9.20;99.90
34406;DHT22;20658;45.630;8.886;2023-12-29T10:42:54;9.30;99.90
34406;DHT22;20658;45.630;8.886;2023-12-29T10:45:24;9.30;99.90
34406;DHT22;20658;45.630;8.886;2023-12-29T10:47:59;9.30;99.90
34406;DHT22;20658;45.630;8.886;2023-12-29T10:50:28;9.40;99.90
34406;DHT22;20658;45.630;8.886;2023-12-29T10:53:12;9.40;99.90
34406;DHT22;20658;45.630;8.886;2023-12-29T10:55:46;9.40;99.90
34406;DHT22;20658;45.630;8.886;2023-12-29T10:58:20;9.40;99.90
34406;DHT22;20658;45.630;8.886;2023-12-29T11:00:54;9.40;99.90
34406;DHT22;20658;45.630;8.886;2023-12-29T11:03:28;9.40;99.90
34406;DHT22;20658;45.630;8.886;2023-12-29T11:06:04;9.40;99.90
34406;DHT22;20658;45.630;8.886;2023-12-29T11:08:39;9.40;99.90
34406;DHT22;20658;45.630;8.886;2023-12-29T11:11:13;9.40;99.90
34406;DHT22;20658;45.630;8.886;2023-12-29T11:13:48;9.40;99.90
34406;DHT22;20658;45.630;8.886;2023-12-29T11:16:22;9.40;99.90
34406;DHT22;20658;45.630;8.886;2023-12-29T11:18:56;9.40;99.90
34406;DHT22;20658;45.630;8.886;2023-12-29T11:21:31;9.30;99.90
34406;DHT22;20658;45.630;8.886;2023-12-29T11:24:07;9.40;99.90
34406;DHT22;20658;45.630;8.886;2023-12-29T11:26:40;9.40;99.90
34406;DHT22;20658;45.630;8.886;2023-12-29T11:29:16;9.40;99.90
34406;DHT22;20658;45.630;8.886;2023-12-29T11:31:50;9.40;99.90
34406;DHT22;20658;45.630;8.886;2023-12-29T11:34:29;9.40;99.90
34406;DHT22;20658;45.630;8.886;2023-12-29T11:37:15;9.40;99.90
34406;DHT22;20658;45.630;8.886;2023-12-29T11:39:55;9.40;99.90
34406;DHT22;20658;45.630;8.886;2023-12-29T11:42:34;9.40;99.90
34406;DHT22;20658;45.630;8.886;2023-12-29T11:45:24;9.50;99.90
34406;DHT22;20658;45.630;8.886;2023-12-29T11:47:53;9.50;99.90
34406;DHT22;20658;45.630;8.886;2023-12-29T11:50:30;9.50;99.90
34406;DHT22;20658;45.630;8.886;2023-12-29T11:53:04;9.50;99.90
34406;DHT22;20658;45.630;8.886;2023-12-29T11:55:39;9.50;99.90
34406;DHT22;20658;45.630;8.886;2023-12-29T11:58:25;9.50;99.90
34406;DHT22;20658;45.630;8.886;2023-12-29T12:00:55;9.50;99.90
34406;DHT22;20658;45.630;8.886;2023-12-29T12:03:31;9.60;99.90
34406;DHT22;20658;45.630;8.886;2023-12-29T12:06:05;9.60;99.90
34406;DHT22;20658;45.630;8.886;2023-12-29T12:08:40;9.60;99.90
34406;DHT22;20658;45.630;8.886;2023-12-29T12:11:43;9.60;99.90
34406;DHT22;20658;45.630;8.886;2023-12-29T12:14:50;9.70;99.90
34406;DHT22;20658;45.630;8.886;2023-12-29T12:17:30;9.70;99.90
34406;DHT22;20658;45.630;8.886;2023-12-29T12:20:07;9.80;99.90
34406;DHT22;20658;45.630;8.886;2023-12-29T12:22:37;9.80;99.90
34406;DHT22;20658;45.630;8.886;2023-12-29T12:25:06;9.90;99.90
34406;DHT22;20658;45.630;8.886;2023-12-29T12:27:43;10.00;99.90
34406;DHT22;20658;45.630;8.886;2023-12-29T12:30:19;10.00;99.90
34406;DHT22;20658;45.630;8.886;2023-12-29T12:32:59;10.00;99.90
34406;DHT22;20658;45.630;8.886;2023-12-29T12:35:33;10.00;99.90
34406;DHT22;20658;45.630;8.886;2023-12-29T12:38:09;10.00;99.90
34406;DHT22;20658;45.630;8.886;2023-12-29T12:40:38;10.10;99.90
34406;DHT22;20658;45.630;8.886;2023-12-29T12:43:11;10.00;99.90
34406;DHT22;20658;45.630;8.886;2023-12-29T12:45:47;10.00;99.90
34406;DHT22;20658;45.630;8.886;2023-12-29T12:48:23;10.00;99.90
34406;DHT22;20658;45.630;8.886;2023-12-29T12:50:55;10.00;99.90
34406;DHT22;20658;45.630;8.886;2023-12-29T12:53:26;10.00;99.90
34406;DHT22;20658;45.630;8.886;2023-12-29T12:55:59;10.00;99.90
34406;DHT22;20658;45.630;8.886;2023-12-29T12:58:36;10.10;99.90
34406;DHT22;20658;45.630;8.886;2023-12-29T13:01:05;10.10;99.90
34406;DHT22;20658;45.630;8.886;2023-12-29T13:03:37;10.10;99.90
34406;DHT22;20658;45.630;8.886;2023-12-29T13:06:07;10.10;99.90
34406;DHT22;20658;45.630;8.886;2023-12-29T13:08:35;10.10;99.90
34406;DHT22;20658;45.630;8.886;2023-12-29T13:11:09;10.10;99.90
34406;DHT22;20658;45.630;8.886;2023-12-29T13:13:45;10.10;99.90
34406;DHT22;20658;45.630;8.886;2023-12-29T13:16:18;10.10;99.90
34406;DHT22;20658;45.630;8.886;2023-12-29T13:19:15;10.10;99.90
34406;DHT22;20658;45.630;8.886;2023-12-29T13:21:48;10.00;99.90
34406;DHT22;20658;45.630;8.886;2023-12-29T13:24:26;10.00;99.90
34406;DHT22;20658;45.630;8.886;2023-12-29T13:27:04;10.00;99.90
34406;DHT22;20658;45.630;8.886;2023-12-29T13:29:35;10.00;99.90
34406;DHT22;20658;45.630;8.886;2023-12-29T13:32:07;10.00;99.90
34406;DHT22;20658;45.630;8.886;2023-12-29T13:34:50;10.00;99.90
34406;DHT22;20658;45.630;8.886;2023-12-29T13:37:32;10.00;99.90
34406;DHT22;20658;45.630;8.886;2023-12-29T13:40:14;9.90;99.90
34406;DHT22;20658;45.630;8.886;2023-12-29T13:42:56;9.90;99.90
34406;DHT22;20658;45.630;8.886;2023-12-29T13:45:33;9.90;99.90
34406;DHT22;20658;45.630;8.886;2023-12-29T13:48:09;9.90;99.90
34406;DHT22;20658;45.630;8.886;2023-12-29T13:50:45;9.90;99.90
34406;DHT22;20658;45.630;8.886;2023-12-29T13:53:17;9.90;99.90
34406;DHT22;20658;45.630;8.886;2023-12-29T13:55:46;9.90;99.90
34406;DHT22;20658;45.630;8.886;2023-12-29T13:58:17;9.90;99.90
34406;DHT22;20658;45.630;8.886;2023-12-29T14:00:57;9.80;99.90
34406;DHT22;20658;45.630;8.886;2023-12-29T14:03:34;9.80;99.90
34406;DHT22;20658;45.630;8.886;2023-12-29T14:06:12;9.80;99.90
34406;DHT22;20658;45.630;8.886;2023-12-29T14:08:53;9.80;99.90
34406;DHT22;20658;45.630;8.886;2023-12-29T14:11:26;9.50;99.90
34406;DHT22;20658;45.630;8.886;2023-12-29T14:14:00;9.70;99.90
34406;DHT22;20658;45.630;8.886;2023-12-29T14:16:30;9.70;99.90
34406;DHT22;20658;45.630;8.886;2023-12-29T14:18:58;9.60;99.90
34406;DHT22;20658;45.630;8.886;2023-12-29T14:21:33;9.60;99.90
34406;DHT22;20658;45.630;8.886;2023-12-29T14:24:08;9.50;99.90
34406;DHT22;20658;45.630;8.886;2023-12-29T14:26:37;9.50;99.90
34406;DHT22;20658;45.630;8.886;2023-12-29T14:29:13;9.50;99.90
34406;DHT22;20658;45.630;8.886;2023-12-29T14:31:51;9.50;99.90
34406;DHT22;20658;45.630;8.886;2023-12-29T14:34:26;9.40;99.90
34406;DHT22;20658;45.630;8.886;2023-12-29T14:37:01;9.40;99.90
34406;DHT22;20658;45.630;8.886;2023-12-29T14:39:29;9.40;99.90
34406;DHT22;20658;45.630;8.886;2023-12-29T14:41:58;9.50;99.90
34406;DHT22;20658;45.630;8.886;2023-12-29T14:44:31;9.40;99.90
34406;DHT22;20658;45.630;8.886;2023-12-29T14:47:11;9.40;99.90
34406;DHT22;20658;45.630;8.886;2023-12-29T14:49:44;9.40;99.90
34406;DHT22;20658;45.630;8.886;2023-12-29T14:52:18;9.40;99.90
34406;DHT22;20658;45.630;8.886;2023-12-29T14:54:52;9.40;99.90
34406;DHT22;20658;45.630;8.886;2023-12-29T14:57:25;9.40;99.90
34406;DHT22;20658;45.630;8.886;2023-12-29T14:59:58;9.40;99.90
34406;DHT22;20658;45.630;8.886;2023-12-29T15:02:33;9.30;99.90
34406;DHT22;20658;45.630;8.886;2023-12-29T15:05:07;9.40;99.90
34406;DHT22;20658;45.630;8.886;2023-12-29T15:07:41;9.30;99.90
34406;DHT22;20658;45.630;8.886;2023-12-29T15:10:14;9.30;99.90
34406;DHT22;20658;45.630;8.886;2023-12-29T15:12:48;9.30;99.90
34406;DHT22;20658;45.630;8.886;2023-12-29T15:15:21;9.30;99.90
34406;DHT22;20658;45.630;8.886;2023-12-29T15:17:56;9.20;99.90
34406;DHT22;20658;45.630;8.886;2023-12-29T15:20:29;9.20;99.90
34406;DHT22;20658;45.630;8.886;2023-12-29T15:23:03;9.10;99.90
34406;DHT22;20658;45.630;8.886;2023-12-29T15:25:37;9.10;99.90
34406;DHT22;20658;45.630;8.886;2023-12-29T15:28:11;9.10;99.90
34406;DHT22;20658;45.630;8.886;2023-12-29T15:30:44;9.10;99.90
34406;DHT22;20658;45.630;8.886;2023-12-29T15:33:19;9.10;99.90
34406;DHT22;20658;45.630;8.886;2023-12-29T15:35:53;9.10;99.90
34406;DHT22;20658;45.630;8.886;2023-12-29T15:38:29;9.10;99.90
34406;DHT22;20658;45.630;8.886;2023-12-29T15:41:04;9.10;99.90
34406;DHT22;20658;45.630;8.886;2023-12-29T15:43:38;9.10;99.90
34406;DHT22;20658;45.630;8.886;2023-12-29T15:46:15;9.10;99.90
34406;DHT22;20658;45.630;8.886;2023-12-29T15:48:50;9.10;99.90
34406;DHT22;20658;45.630;8.886;2023-12-29T15:51:23;9.10;99.90
34406;DHT22;20658;45.630;8.886;2023-12-29T15:53:57;9.10;99.90
34406;DHT22;20658;45.630;8.886;2023-12-29T15:56:30;9.10;99.90
34406;DHT22;20658;45.630;8.886;2023-12-29T15:58:59;9.10;99.90
34406;DHT22;20658;45.630;8.886;2023-12-29T16:01:33;9.10;99.90
34406;DHT22;20658;45.630;8.886;2023-12-29T16:04:08;9.10;99.90
34406;DHT22;20658;45.630;8.886;2023-12-29T16:06:42;9.10;99.90
34406;DHT22;20658;45.630;8.886;2023-12-29T16:09:15;9.10;99.90
34406;DHT22;20658;45.630;8.886;2023-12-29T16:11:48;9.10;99.90
34406;DHT22;20658;45.630;8.886;2023-12-29T16:14:26;9.10;99.90
34406;DHT22;20658;45.630;8.886;2023-12-29T16:17:00;9.10;99.90
34406;DHT22;20658;45.630;8.886;2023-12-29T16:19:35;9.10;99.90
34406;DHT22;20658;45.630;8.886;2023-12-29T16:22:09;9.10;99.90
34406;DHT22;20658;45.630;8.886;2023-12-29T16:24:42;9.10;99.90
34406;DHT22;20658;45.630;8.886;2023-12-29T16:27:16;9.10;99.90
34406;DHT22;20658;45.630;8.886;2023-12-29T16:29:50;9.10;99.90